CST,Max TemperatureF,Mean TemperatureF,Min TemperatureF,Max Dew PointF,MeanDew PointF,Min DewpointF,Max Humidity, Mean Humidity, Min Humidity, Max Sea Level PressureIn, Mean Sea Level PressureIn, Min Sea Level PressureIn, Max VisibilityMiles, Mean VisibilityMiles, Min VisibilityMiles, Max Wind SpeedMPH, Mean Wind SpeedMPH, Max Gust SpeedMPH,PrecipitationIn, CloudCover, Events, WindDirDegrees
2012-1-1,36,31,26,36,25,20,100,79,57,30.42,30.19,29.79,10,10,7,33,24,43,0.00,3,,308
2012-1-2,26,20,12,19,13,10,90,71,51,30.53,30.49,30.41,10,10,10,29,18,36,0.00,0,,319
2012-1-3,38,22,5,25,16,6,100,78,50,30.49,30.17,29.94,10,10,10,24,9,32,0.00,0,,173
2012-1-4,46,36,27,32,31,26,100,82,52,30.20,30.09,29.93,10,10,10,20,12,26,0.00,0,,294
2012-1-5,64,46,28,36,31,28,96,70,33,30.02,29.91,29.75,10,10,10,17,10,,0.00,0,,237
2012-1-6,49,38,28,35,32,28,100,77,47,29.95,29.80,29.66,10,10,10,20,7,22,0.00,1,,317
2012-1-7,41,31,21,31,27,21,100,84,65,30.22,30.12,29.99,10,10,10,12,7,,0.00,0,,309
2012-1-8,42,30,18,34,26,19,100,89,61,30.33,30.28,30.25,10,10,10,7,2,,0.00,0,,224
2012-1-9,51,36,22,33,29,23,100,78,44,30.23,30.10,30.02,10,10,10,18,10,23,0.00,0,,231
2012-1-10,57,40,23,36,30,23,100,79,43,30.02,29.90,29.74,10,10,10,14,5,,0.00,0,,202
2012-1-11,37,28,20,36,27,15,100,94,80,29.88,29.71,29.60,10,9,2,37,12,45,0.00,4,Snow,318
2012-1-12,17,13,9,15,8,5,91,81,75,29.88,29.85,29.82,10,10,5,29,22,37,0.00,8,Snow,321
2012-1-13,22,14,5,9,6,2,96,76,53,30.05,30.00,29.93,10,10,10,18,12,24,0.00,3,,294
2012-1-14,35,26,16,32,23,15,100,95,80,30.13,30.04,29.94,10,9,2,14,5,18,0.00,6,Snow,268
2012-1-15,53,34,16,32,26,17,100,77,43,30.13,29.94,29.73,10,10,10,28,11,34,0.00,0,,159
2012-1-16,41,36,30,32,30,27,94,83,68,29.77,29.72,29.68,10,10,10,21,10,25,0.00,1,,354
2012-1-17,23,13,3,19,12,3,98,86,66,30.33,30.13,29.81,10,8,2,29,19,37,0.00,4,Snow,323
2012-1-18,30,14,-2,22,11,-3,100,87,70,30.30,30.03,29.79,10,10,10,31,11,36,0.00,1,,186
2012-1-19,12,6,1,8,-4,-7,83,67,49,30.17,30.10,29.94,10,10,10,22,14,26,0.00,4,,14
2012-1-20,10,7,4,8,4,-1,95,88,71,30.13,30.03,29.95,10,9,2,18,10,16,0.00,8,Snow,80
2012-1-21,24,11,-2,24,11,-3,97,95,93,30.21,30.08,29.82,10,9,2,22,9,25,0.00,7,Snow,115
2012-1-22,36,30,23,36,31,23,100,100,96,29.74,29.54,29.43,10,4,0,23,17,29,0.00,7,Fog-Rain,135
2012-1-23,32,28,25,32,26,24,100,97,94,29.98,29.74,29.42,10,6,1,24,17,30,0.00,8,Snow,294
2012-1-24,29,26,22,29,25,22,100,97,91,30.27,30.19,30.03,10,10,10,9,7,,0.00,6,,18
2012-1-25,41,33,25,38,30,26,100,98,88,30.27,30.10,29.93,10,7,5,14,7,,0.00,4,,131
2012-1-26,42,32,23,38,32,23,100,94,83,29.91,29.83,29.77,10,9,5,22,9,30,0.00,3,,279
2012-1-27,38,32,26,36,30,26,100,95,82,30.04,29.92,29.86,10,10,2,26,9,33,0.00,6,Snow,255
2012-1-28,42,30,19,26,24,19,99,80,47,30.17,30.11,30.07,10,10,10,26,15,31,0.00,1,,264
2012-1-29,33,27,21,26,23,20,96,75,59,30.23,30.12,29.94,10,10,10,16,11,22,0.00,3,,269
2012-1-30,62,47,32,36,32,26,81,64,36,29.92,29.77,29.70,10,10,10,17,10,22,0.00,0,,200
2012-1-31,58,45,32,43,39,33,100,77,52,29.92,29.77,29.71,10,10,10,18,13,24,0.00,0,,255